createdAt,value
2016-11-14T00:00:28.110Z,99.99
2016-11-14T00:01:28.127Z,99.99
2016-11-14T00:02:28.136Z,99.99
2016-11-14T00:03:28.149Z,99.99
2016-11-14T00:04:28.163Z,99.99
2016-11-14T00:05:28.177Z,99.99
2016-11-14T00:06:28.185Z,99.99
2016-11-14T00:07:28.200Z,99.99
2016-11-14T00:08:28.211Z,99.99
2016-11-14T00:09:28.226Z,99.99
2016-11-14T00:10:28.238Z,99.99
2016-11-14T00:11:28.247Z,99.99
2016-11-14T00:12:28.261Z,99.99
2016-11-14T00:13:43.190Z,99.99
2016-11-14T00:14:28.290Z,99.99
2016-11-14T00:15:28.303Z,99.99
2016-11-14T00:16:28.312Z,99.99
2016-11-14T00:17:28.329Z,99.99
2016-11-14T00:18:28.348Z,99.99
2016-11-14T00:19:28.349Z,99.99
2016-11-14T00:20:28.365Z,99.99
2016-11-14T00:21:28.379Z,99.99
2016-11-14T00:22:28.389Z,99.99
2016-11-14T00:23:28.404Z,99.99
2016-11-14T00:24:28.411Z,99.99
2016-11-14T00:25:28.474Z,99.99
2016-11-14T00:26:28.439Z,99.99
2016-11-14T00:27:28.554Z,99.99
2016-11-14T00:28:28.464Z,99.99
2016-11-14T00:29:28.475Z,99.99
2016-11-14T00:30:28.493Z,99.99
2016-11-14T00:31:28.499Z,99.99
2016-11-14T00:32:28.516Z,99.99
2016-11-14T00:33:28.528Z,99.99
2016-11-14T00:34:28.538Z,99.99
2016-11-14T00:35:28.550Z,99.99
2016-11-14T00:37:28.584Z,99.99
2016-11-14T00:38:28.589Z,99.99
2016-11-14T00:39:28.602Z,99.99
2016-11-14T00:40:28.615Z,99.99
2016-11-14T00:41:28.676Z,99.99
2016-11-14T00:42:28.638Z,99.99
2016-11-14T00:43:28.649Z,99.99
2016-11-14T00:44:28.662Z,99.99
2016-11-14T00:45:43.588Z,99.99
2016-11-14T00:46:28.741Z,99.99
2016-11-14T00:47:28.703Z,99.99
2016-11-14T00:48:28.714Z,99.99
2016-11-14T00:49:28.727Z,99.99
2016-11-14T00:50:28.736Z,99.99
2016-11-14T00:51:28.798Z,99.99
2016-11-14T00:52:28.762Z,99.99
2016-11-14T00:53:28.774Z,99.99
2016-11-14T00:54:28.787Z,99.99
2016-11-14T00:55:28.800Z,99.99
2016-11-14T00:56:28.809Z,99.99
2016-11-14T00:57:28.823Z,99.99
2016-11-14T00:58:28.838Z,99.99
2016-11-14T00:59:28.848Z,99.99
2016-11-14T01:00:28.862Z,99.99
2016-11-14T01:01:43.787Z,99.99
2016-11-14T01:02:28.916Z,99.99
2016-11-14T01:03:28.899Z,99.99
2016-11-14T01:04:29.217Z,99.99
2016-11-14T01:05:28.924Z,99.99
2016-11-14T01:06:28.932Z,99.99
2016-11-14T01:07:28.944Z,99.99
2016-11-14T01:08:28.960Z,99.99
2016-11-14T01:09:28.972Z,99.99
2016-11-14T01:10:28.989Z,99.99
2016-11-14T01:11:28.993Z,99.99
2016-11-14T01:12:29.010Z,99.99
2016-11-14T01:13:29.023Z,99.99
2016-11-14T01:14:29.038Z,99.99
2016-11-14T01:15:29.045Z,99.99
2016-11-14T01:16:29.057Z,99.99
2016-11-14T01:17:43.981Z,99.99
2016-11-14T01:18:29.082Z,99.99
2016-11-14T01:19:29.095Z,99.99
2016-11-14T01:20:29.103Z,99.99
2016-11-14T01:21:29.123Z,99.99
2016-11-14T01:22:29.128Z,99.99
2016-11-14T01:23:29.144Z,99.99
2016-11-14T01:24:29.157Z,99.99
2016-11-14T01:27:29.192Z,99.99
2016-11-14T01:28:29.203Z,99.99
2016-11-14T01:29:29.215Z,99.99
2016-11-14T01:30:29.232Z,99.99
2016-11-14T01:31:29.241Z,99.99
2016-11-14T01:32:29.251Z,99.99
2016-11-14T01:33:44.177Z,99.99
2016-11-14T01:34:29.277Z,99.99
2016-11-14T01:35:29.289Z,99.99
2016-11-14T01:36:29.303Z,99.99
2016-11-14T01:37:29.314Z,99.99
2016-11-14T01:38:29.626Z,99.99
2016-11-14T01:39:29.334Z,99.99
2016-11-14T01:40:29.350Z,99.99
2016-11-14T01:41:29.360Z,99.99
2016-11-14T01:42:29.376Z,99.99
2016-11-14T01:43:29.385Z,99.99
2016-11-14T01:44:29.400Z,99.99
2016-11-14T01:45:29.413Z,99.99
2016-11-14T01:46:29.421Z,99.99
2016-11-14T01:47:29.437Z,99.99
2016-11-14T01:48:44.361Z,99.99
2016-11-14T01:49:29.458Z,99.99
2016-11-14T01:50:29.474Z,99.99
2016-11-14T01:51:29.487Z,99.99
2016-11-14T01:52:29.495Z,99.99
2016-11-14T01:53:29.507Z,99.99
2016-11-14T01:55:29.532Z,99.99
2016-11-14T01:56:29.544Z,99.99
2016-11-14T01:57:29.557Z,99.99
2016-11-14T01:58:29.570Z,99.99
2016-11-14T01:59:29.579Z,99.99
2016-11-14T02:00:29.592Z,99.99
2016-11-14T02:01:29.605Z,99.99
2016-11-14T02:02:29.618Z,99.99
2016-11-14T02:03:29.631Z,99.99
2016-11-14T02:04:29.643Z,99.99
2016-11-14T02:05:29.655Z,99.99
2016-11-14T02:06:29.664Z,99.99
2016-11-14T02:07:29.676Z,99.99
2016-11-14T02:08:29.690Z,99.99
2016-11-14T02:09:29.786Z,99.99
2016-11-14T02:10:29.712Z,99.99
2016-11-14T02:11:29.723Z,99.99
2016-11-14T02:12:29.736Z,99.99
2016-11-14T02:14:29.761Z,99.99
2016-11-14T02:15:29.775Z,99.99
2016-11-14T02:16:29.782Z,99.99
2016-11-14T02:17:29.799Z,99.99
2016-11-14T02:18:29.853Z,99.99
2016-11-14T02:19:29.820Z,99.99
2016-11-14T02:20:44.746Z,99.99
2016-11-14T02:21:29.847Z,99.99
2016-11-14T02:22:29.858Z,99.99
2016-11-14T02:23:29.873Z,99.99
2016-11-14T02:24:29.882Z,99.99
2016-11-14T02:25:29.894Z,99.99
2016-11-14T02:26:29.916Z,99.99
2016-11-14T02:28:29.932Z,99.99
2016-11-14T02:29:29.941Z,99.99
2016-11-14T02:30:29.955Z,99.99
2016-11-14T02:31:29.964Z,99.99
2016-11-14T02:32:29.976Z,99.99
2016-11-14T02:33:29.990Z,99.99
2016-11-14T02:34:30.049Z,99.99
2016-11-14T02:35:30.015Z,99.99
2016-11-14T02:36:44.937Z,99.99
2016-11-14T02:37:30.047Z,99.99
2016-11-14T02:38:30.051Z,99.99
2016-11-14T02:39:30.112Z,99.99
2016-11-14T02:40:30.072Z,99.99
2016-11-14T02:41:30.086Z,99.99
2016-11-14T02:42:30.098Z,99.99
2016-11-14T02:44:30.178Z,99.99
2016-11-14T02:45:30.130Z,99.99
2016-11-14T02:46:30.144Z,99.99
2016-11-14T02:47:30.156Z,99.99
2016-11-14T02:48:30.170Z,99.99
2016-11-14T02:49:30.179Z,99.99
2016-11-14T02:50:30.192Z,99.99
2016-11-14T02:51:30.203Z,99.99
2016-11-14T02:52:45.130Z,99.99
2016-11-14T02:53:30.230Z,99.99
2016-11-14T02:54:30.239Z,99.99
2016-11-14T02:55:30.249Z,99.99
2016-11-14T02:56:30.260Z,99.99
2016-11-14T02:57:30.273Z,99.99
2016-11-14T03:00:30.310Z,99.99
2016-11-14T03:01:30.332Z,99.99
2016-11-14T03:02:30.334Z,99.99
2016-11-14T03:03:30.344Z,99.99
2016-11-14T03:04:30.406Z,99.99
2016-11-14T03:05:30.371Z,99.99
2016-11-14T03:06:30.383Z,99.99
2016-11-14T03:07:30.396Z,99.99
2016-11-14T03:08:45.318Z,99.99
2016-11-14T03:09:30.467Z,99.99
2016-11-14T03:10:30.428Z,99.99
2016-11-14T03:11:30.442Z,99.99
2016-11-14T03:12:30.461Z,99.99
2016-11-14T03:13:30.465Z,99.99
2016-11-14T03:14:30.526Z,99.99
2016-11-14T03:16:30.502Z,99.99
2016-11-14T03:17:30.512Z,99.99
2016-11-14T03:18:30.525Z,99.99
2016-11-14T03:19:30.585Z,99.99
2016-11-14T03:20:30.550Z,99.99
2016-11-14T03:21:30.561Z,99.99
2016-11-14T03:22:30.572Z,99.99
2016-11-14T03:23:45.497Z,99.99
2016-11-14T03:24:30.597Z,99.99
2016-11-14T03:25:30.609Z,99.99
2016-11-14T03:26:30.618Z,99.99
2016-11-14T03:27:30.629Z,99.99
2016-11-14T03:28:30.644Z,99.99
2016-11-14T03:29:30.652Z,99.99
2016-11-14T03:30:30.668Z,99.99
2016-11-14T03:31:30.676Z,99.99
2016-11-14T03:32:30.692Z,99.99
2016-11-14T03:33:30.708Z,99.99
2016-11-14T03:34:30.713Z,99.99
2016-11-14T03:35:30.725Z,99.99
2016-11-14T03:36:30.739Z,99.99
2016-11-14T03:37:30.750Z,99.99
2016-11-14T03:38:30.763Z,99.99
2016-11-14T03:39:30.776Z,99.99
2016-11-14T03:40:30.785Z,99.99
2016-11-14T03:41:30.798Z,99.99
2016-11-14T03:42:30.811Z,99.99
2016-11-14T03:43:30.822Z,99.99
2016-11-14T03:45:30.844Z,99.99
2016-11-14T03:46:30.855Z,99.99
2016-11-14T03:48:30.878Z,99.99
2016-11-14T03:49:30.891Z,99.99
2016-11-14T03:50:30.905Z,99.99
2016-11-14T03:51:30.919Z,99.99
2016-11-14T03:52:30.927Z,99.99
2016-11-14T03:53:30.937Z,99.99
2016-11-14T03:54:30.951Z,99.99
2016-11-14T03:55:45.875Z,99.99
2016-11-14T03:56:30.971Z,99.99
2016-11-14T03:57:30.990Z,99.99
2016-11-14T03:59:31.009Z,99.99
2016-11-14T04:00:31.018Z,99.99
2016-11-14T04:01:31.033Z,99.99
2016-11-14T04:02:31.047Z,99.99
2016-11-14T04:03:31.105Z,99.99
2016-11-14T04:05:31.078Z,99.99
2016-11-14T04:06:31.094Z,99.99
2016-11-14T04:07:31.102Z,99.99
2016-11-14T04:08:31.116Z,99.99
2016-11-14T04:09:31.127Z,99.99
2016-11-14T04:10:31.136Z,99.99
2016-11-14T04:11:46.063Z,99.99
2016-11-14T04:12:31.162Z,99.99
2016-11-14T04:13:31.172Z,99.99
2016-11-14T04:14:31.185Z,99.99
2016-11-14T04:15:31.196Z,99.99
2016-11-14T04:16:31.206Z,99.99
2016-11-14T04:17:31.270Z,99.99
2016-11-14T04:18:31.231Z,99.99
2016-11-14T04:19:31.242Z,99.99
2016-11-14T04:20:31.553Z,99.99
2016-11-14T04:21:31.265Z,99.99
2016-11-14T04:22:31.278Z,99.99
2016-11-14T04:23:31.325Z,99.99
2016-11-14T04:24:31.301Z,99.99
2016-11-14T04:25:31.314Z,99.99
2016-11-14T04:26:31.323Z,99.99
2016-11-14T04:27:46.249Z,99.99
2016-11-14T04:28:31.346Z,99.99
2016-11-14T04:29:31.361Z,99.99
2016-11-14T04:30:31.369Z,99.99
2016-11-14T04:31:31.383Z,99.99
2016-11-14T04:33:31.406Z,99.99
2016-11-14T04:34:31.421Z,99.99
2016-11-14T04:35:31.435Z,99.99
2016-11-14T04:36:31.440Z,99.99
2016-11-14T04:37:31.452Z,99.99
2016-11-14T04:38:31.462Z,99.99
2016-11-14T04:39:31.476Z,99.99
2016-11-14T04:40:31.487Z,99.99
2016-11-14T04:41:31.501Z,99.99
2016-11-14T04:42:31.516Z,99.99
2016-11-14T04:43:46.435Z,99.99
2016-11-14T04:44:31.534Z,99.99
2016-11-14T04:45:31.545Z,99.99
2016-11-14T04:46:31.557Z,99.99
2016-11-14T04:47:31.571Z,99.99
2016-11-14T04:48:31.581Z,99.99
2016-11-14T04:49:31.590Z,99.99
2016-11-14T04:51:31.618Z,99.99
2016-11-14T04:52:31.626Z,99.99
2016-11-14T04:53:31.641Z,99.99
2016-11-14T04:54:31.649Z,99.99
2016-11-14T04:55:31.663Z,99.99
2016-11-14T04:56:31.675Z,99.99
2016-11-14T04:57:31.684Z,99.99
2016-11-14T04:58:46.610Z,99.99
2016-11-14T04:59:31.709Z,99.99
2016-11-14T05:00:31.720Z,99.99
2016-11-14T05:01:31.729Z,99.99
2016-11-14T05:02:31.743Z,99.99
2016-11-14T05:03:31.761Z,99.99
2016-11-14T05:05:31.780Z,99.99
2016-11-14T05:06:31.786Z,99.99
2016-11-14T05:07:31.804Z,99.99
2016-11-14T05:08:31.812Z,99.99
2016-11-14T05:09:31.823Z,99.99
2016-11-14T05:10:31.837Z,99.99
2016-11-14T05:11:31.843Z,99.99
2016-11-14T05:12:31.856Z,99.99
2016-11-14T05:13:31.871Z,99.99
2016-11-14T05:14:31.884Z,99.99
2016-11-14T05:15:31.891Z,99.99
2016-11-14T05:16:31.904Z,99.99
2016-11-14T05:17:31.913Z,99.99
2016-11-14T05:18:31.923Z,99.99
2016-11-14T05:19:31.986Z,99.99
2016-11-14T05:20:31.981Z,99.99
2016-11-14T05:21:31.961Z,99.99
2016-11-14T05:22:31.970Z,99.99
2016-11-14T05:23:31.985Z,99.99
2016-11-14T05:24:31.995Z,99.99
2016-11-14T05:25:32.007Z,99.99
2016-11-14T05:26:32.018Z,99.99
2016-11-14T05:27:32.033Z,99.99
2016-11-14T05:28:32.049Z,99.99
2016-11-14T05:29:32.049Z,99.99
2016-11-14T05:30:46.976Z,99.99
2016-11-14T05:31:32.074Z,99.99
2016-11-14T05:32:32.086Z,99.99
2016-11-14T05:33:32.099Z,99.99
2016-11-14T05:34:32.158Z,99.99
2016-11-14T05:35:32.122Z,99.99
2016-11-14T05:36:32.139Z,99.99
2016-11-14T05:37:32.144Z,99.99
2016-11-14T05:38:32.156Z,99.99
2016-11-14T05:39:32.168Z,99.99
2016-11-14T05:40:32.180Z,99.99
2016-11-14T05:41:32.188Z,99.99
2016-11-14T05:42:32.199Z,99.99
2016-11-14T05:43:32.210Z,99.99
2016-11-14T05:44:32.228Z,99.99
2016-11-14T05:45:32.234Z,99.99
2016-11-14T05:46:47.160Z,99.99
2016-11-14T05:47:32.257Z,99.99
2016-11-14T05:48:32.270Z,99.99
2016-11-14T05:49:32.284Z,99.99
2016-11-14T05:50:32.296Z,99.99
2016-11-14T05:51:32.304Z,99.99
2016-11-14T05:52:32.314Z,99.99
2016-11-14T05:53:32.323Z,99.99
2016-11-14T05:54:32.335Z,99.99
2016-11-14T05:55:32.348Z,99.99
2016-11-14T05:56:32.361Z,99.99
2016-11-14T05:57:32.372Z,99.99
2016-11-14T05:58:32.435Z,99.99
2016-11-14T05:59:32.396Z,99.99
2016-11-14T06:00:32.405Z,99.99
2016-11-14T06:01:32.421Z,99.99
2016-11-14T06:02:47.339Z,99.99
2016-11-14T06:03:32.440Z,99.99
2016-11-14T06:04:32.450Z,99.99
2016-11-14T06:05:32.463Z,99.99
2016-11-14T06:06:32.472Z,99.99
2016-11-14T06:07:32.483Z,99.99
2016-11-14T06:08:32.495Z,99.99
2016-11-14T06:09:32.508Z,99.99
2016-11-14T06:10:32.518Z,99.99
2016-11-14T06:11:32.580Z,99.99
2016-11-14T06:12:32.542Z,99.99
2016-11-14T06:13:32.551Z,99.99
2016-11-14T06:14:32.565Z,99.99
2016-11-14T06:15:32.572Z,99.99
2016-11-14T06:16:32.586Z,99.99
2016-11-14T06:17:32.596Z,99.99
2016-11-14T06:18:47.521Z,99.99
2016-11-14T06:19:32.622Z,99.99
2016-11-14T06:20:32.632Z,99.99
2016-11-14T06:22:32.652Z,99.99
2016-11-14T06:23:32.667Z,99.99
2016-11-14T06:24:32.676Z,99.99
2016-11-14T06:25:32.690Z,99.99
2016-11-14T06:26:32.698Z,99.99
2016-11-14T06:29:32.729Z,99.99
2016-11-14T06:30:32.745Z,99.99
2016-11-14T06:31:32.755Z,99.99
2016-11-14T06:32:32.773Z,99.99
2016-11-14T06:33:47.692Z,99.99
2016-11-14T06:34:32.789Z,99.99
2016-11-14T06:35:32.800Z,99.99
2016-11-14T06:36:32.812Z,99.99
2016-11-14T06:37:32.824Z,99.99
2016-11-14T06:38:32.834Z,99.99
2016-11-14T06:39:32.849Z,99.99
2016-11-14T06:40:32.859Z,99.99
2016-11-14T06:42:32.881Z,99.99
2016-11-14T06:43:32.889Z,99.99
2016-11-14T06:44:32.906Z,99.99
2016-11-14T06:45:32.915Z,99.99
2016-11-14T06:46:32.981Z,99.99
2016-11-14T06:47:32.934Z,99.99
2016-11-14T06:48:32.952Z,99.99
2016-11-14T06:49:32.959Z,99.99
2016-11-14T06:50:32.970Z,99.99
2016-11-14T06:51:32.984Z,99.99
2016-11-14T06:52:32.995Z,99.99
2016-11-14T06:54:33.015Z,99.99
2016-11-14T06:56:33.036Z,99.99
2016-11-14T06:57:33.048Z,99.99
2016-11-14T06:58:33.064Z,99.99
2016-11-14T06:59:33.107Z,99.99
2016-11-14T07:00:33.082Z,99.99
2016-11-14T07:01:33.097Z,99.99
2016-11-14T07:02:33.108Z,99.99
2016-11-14T07:03:33.120Z,99.99
2016-11-14T07:04:33.131Z,99.99
2016-11-14T07:05:48.054Z,99.99
2016-11-14T07:06:33.153Z,99.99
2016-11-14T07:07:33.164Z,99.99
2016-11-14T07:08:33.178Z,99.99
2016-11-14T07:09:33.191Z,99.99
2016-11-14T07:10:33.200Z,99.99
2016-11-14T07:11:33.521Z,99.99
2016-11-14T07:13:33.231Z,99.99
2016-11-14T07:14:33.245Z,99.99
2016-11-14T07:15:33.257Z,99.99
2016-11-14T07:16:33.266Z,99.99
2016-11-14T07:17:33.278Z,99.99
2016-11-14T07:18:33.291Z,99.99
2016-11-14T07:19:33.303Z,99.99
2016-11-14T07:20:33.318Z,99.99
2016-11-14T07:21:48.238Z,99.99
2016-11-14T07:22:33.336Z,99.99
2016-11-14T07:23:33.350Z,99.99
2016-11-14T07:24:33.361Z,99.99
2016-11-14T07:25:33.373Z,99.99
2016-11-14T07:26:33.383Z,99.99
2016-11-14T07:27:33.409Z,99.99
2016-11-14T07:28:33.406Z,99.99
2016-11-14T07:29:33.424Z,99.99
2016-11-14T07:32:33.462Z,99.99
2016-11-14T07:33:33.498Z,99.99
2016-11-14T07:34:33.479Z,99.99
2016-11-14T07:35:33.489Z,99.99
2016-11-14T07:36:33.501Z,99.99
2016-11-14T07:37:48.426Z,99.99
2016-11-14T07:38:33.525Z,99.99
2016-11-14T07:39:33.538Z,99.99
2016-11-14T07:40:33.551Z,99.99
2016-11-14T07:42:33.574Z,99.99
2016-11-14T07:43:33.584Z,99.99
2016-11-14T07:44:33.603Z,99.99
2016-11-14T07:45:33.618Z,99.99
2016-11-14T07:46:33.623Z,99.99
2016-11-14T07:47:33.634Z,99.99
2016-11-14T07:48:33.646Z,99.99
2016-11-14T07:49:33.663Z,99.99
2016-11-14T07:50:33.673Z,99.99
2016-11-14T07:52:33.696Z,99.99
2016-11-14T07:53:48.622Z,99.99
2016-11-14T07:54:33.719Z,99.99
2016-11-14T07:55:33.772Z,99.99
2016-11-14T07:56:33.744Z,99.99
2016-11-14T07:57:33.755Z,99.99
2016-11-14T07:58:33.769Z,99.99
2016-11-14T07:59:33.781Z,99.99
2016-11-14T08:00:33.793Z,99.99
2016-11-14T08:01:33.808Z,99.99
2016-11-14T08:02:33.821Z,99.99
2016-11-14T08:03:33.833Z,99.99
2016-11-14T08:04:33.846Z,99.99
2016-11-14T08:05:33.856Z,99.99
2016-11-14T08:06:33.876Z,99.99
2016-11-14T08:07:33.884Z,99.99
2016-11-14T08:08:48.811Z,99.99
2016-11-14T08:09:34.219Z,99.99
2016-11-14T08:10:33.919Z,99.99
2016-11-14T08:11:33.935Z,99.99
2016-11-14T08:12:33.945Z,99.99
2016-11-14T08:13:33.962Z,99.99
2016-11-14T08:15:33.987Z,99.99
2016-11-14T08:16:33.999Z,99.99
2016-11-14T08:17:34.013Z,99.99
2016-11-14T08:18:34.326Z,99.99
2016-11-14T08:19:34.036Z,99.99
2016-11-14T08:20:34.052Z,99.99
2016-11-14T08:21:34.061Z,99.99
2016-11-14T08:22:34.108Z,99.99
2016-11-14T08:23:34.088Z,99.99
2016-11-14T08:24:34.103Z,99.99
2016-11-14T08:25:34.115Z,99.99
2016-11-14T08:26:34.127Z,99.99
2016-11-14T08:27:34.145Z,99.99
2016-11-14T08:28:34.157Z,99.99
2016-11-14T08:29:34.166Z,99.99
2016-11-14T08:31:34.194Z,99.99
2016-11-14T08:32:34.211Z,99.99
2016-11-14T08:33:34.225Z,99.99
2016-11-14T08:34:34.237Z,99.99
2016-11-14T08:35:34.251Z,99.99
2016-11-14T08:36:34.263Z,99.99
2016-11-14T08:37:34.276Z,99.99
2016-11-14T08:38:34.293Z,99.99
2016-11-14T08:39:34.304Z,99.99
2016-11-14T08:40:49.232Z,99.99
2016-11-14T08:41:34.332Z,99.99
2016-11-14T08:42:34.344Z,99.99
2016-11-14T08:43:34.358Z,99.99
2016-11-14T08:44:34.371Z,99.99
2016-11-14T08:45:34.387Z,99.99
2016-11-14T08:46:34.402Z,99.99
2016-11-14T08:47:34.415Z,99.99
2016-11-14T08:48:34.426Z,99.99
2016-11-14T08:49:34.491Z,99.99
2016-11-14T08:51:34.470Z,99.99
2016-11-14T08:52:34.483Z,99.99
2016-11-14T08:53:34.497Z,99.99
2016-11-14T08:54:34.509Z,99.99
2016-11-14T08:55:34.526Z,99.99
2016-11-14T08:56:49.454Z,99.99
2016-11-14T08:57:34.554Z,99.99
2016-11-14T08:58:34.566Z,99.99
2016-11-14T08:59:34.581Z,99.99
2016-11-14T09:00:34.599Z,99.99
2016-11-14T09:01:34.612Z,99.99
2016-11-14T09:02:34.628Z,99.99
2016-11-14T09:04:34.651Z,99.99
2016-11-14T09:05:34.665Z,99.99
2016-11-14T09:06:34.680Z,99.99
2016-11-14T09:07:34.694Z,99.99
2016-11-14T09:08:34.711Z,99.99
2016-11-14T09:09:34.724Z,99.99
2016-11-14T09:10:34.737Z,99.99
2016-11-14T09:11:34.754Z,99.99
2016-11-14T09:12:49.680Z,99.99
2016-11-14T09:13:34.778Z,99.99
2016-11-14T09:14:34.796Z,99.99
2016-11-14T09:15:34.814Z,99.99
2016-11-14T09:16:34.826Z,99.99
2016-11-14T09:17:34.882Z,99.99
2016-11-14T09:18:34.856Z,99.99
2016-11-14T09:19:34.867Z,99.99
2016-11-14T09:21:34.996Z,99.99
2016-11-14T09:22:34.915Z,99.99
2016-11-14T09:23:34.928Z,99.99
2016-11-14T09:24:35.089Z,99.99
2016-11-14T09:25:34.955Z,99.99
2016-11-14T09:26:34.971Z,99.99
2016-11-14T09:27:35.040Z,99.99
2016-11-14T09:28:49.916Z,99.99
2016-11-14T09:29:35.014Z,99.99
2016-11-14T09:30:35.030Z,99.99
2016-11-14T09:31:35.055Z,99.99
2016-11-14T09:32:35.059Z,99.99
2016-11-14T09:33:35.076Z,99.99
2016-11-14T09:34:35.090Z,99.99
2016-11-14T09:35:35.104Z,99.99
2016-11-14T09:36:35.529Z,99.99
2016-11-14T09:37:35.136Z,99.99
2016-11-14T09:38:35.157Z,99.99
2016-11-14T09:39:35.215Z,99.99
2016-11-14T09:40:35.182Z,99.99
2016-11-14T09:41:35.196Z,99.99
2016-11-14T09:42:35.220Z,99.99
2016-11-14T09:43:50.142Z,99.99
2016-11-14T09:44:35.245Z,99.99
2016-11-14T09:45:35.256Z,99.99
2016-11-14T09:46:35.275Z,99.99
2016-11-14T09:48:35.305Z,99.99
2016-11-14T09:49:35.319Z,99.99
2016-11-14T09:50:35.338Z,99.99
2016-11-14T09:51:35.352Z,99.99
2016-11-14T09:52:35.368Z,99.99
2016-11-14T09:53:35.382Z,99.99
2016-11-14T09:54:35.400Z,99.99
2016-11-14T09:55:35.409Z,99.99
2016-11-14T09:56:35.427Z,99.99
2016-11-14T09:57:35.443Z,99.99
2016-11-14T09:58:35.456Z,99.99
2016-11-14T09:59:35.474Z,99.99
2016-11-14T10:00:35.489Z,99.99
2016-11-14T10:01:35.504Z,99.99
2016-11-14T10:02:35.518Z,99.99
2016-11-14T10:03:35.534Z,99.99
2016-11-14T10:04:35.549Z,99.99
2016-11-14T10:06:35.583Z,99.99
2016-11-14T10:07:35.596Z,99.99
2016-11-14T10:08:35.614Z,99.99
2016-11-14T10:09:35.629Z,99.99
2016-11-14T10:10:35.651Z,99.99
2016-11-14T10:11:35.658Z,99.99
2016-11-14T10:12:35.672Z,99.99
2016-11-14T10:13:35.692Z,99.99
2016-11-14T10:14:35.705Z,99.99
2016-11-14T10:15:50.635Z,99.99
2016-11-14T10:16:35.736Z,99.99
2016-11-14T10:17:35.755Z,99.99
2016-11-14T10:18:35.767Z,99.99
2016-11-14T10:19:35.783Z,99.99
2016-11-14T10:21:35.816Z,99.99
2016-11-14T10:22:35.836Z,99.99
2016-11-14T10:23:35.845Z,99.99
2016-11-14T10:24:35.865Z,99.99
2016-11-14T10:25:35.876Z,99.99
2016-11-14T10:26:35.893Z,99.99
2016-11-14T10:27:35.909Z,99.99
2016-11-14T10:28:35.929Z,99.99
2016-11-14T10:29:35.942Z,99.99
2016-11-14T10:30:35.959Z,99.99
2016-11-14T10:31:50.886Z,99.99
2016-11-14T10:32:35.987Z,99.99
2016-11-14T10:33:36.003Z,99.99
2016-11-14T10:34:36.019Z,99.99
2016-11-14T10:35:36.037Z,99.99
2016-11-14T10:36:36.052Z,99.99
2016-11-14T10:38:36.081Z,99.99
2016-11-14T10:39:36.100Z,99.99
2016-11-14T10:40:36.117Z,99.99
2016-11-14T10:41:36.130Z,99.99
2016-11-14T10:42:36.146Z,99.99
2016-11-14T10:43:36.163Z,99.99
2016-11-14T10:44:36.177Z,99.99
2016-11-14T10:45:36.190Z,99.99
2016-11-14T10:46:36.209Z,99.99
2016-11-14T10:47:51.139Z,99.99
2016-11-14T10:48:36.240Z,99.99
2016-11-14T10:49:36.255Z,99.99
2016-11-14T10:50:36.272Z,99.99
2016-11-14T10:51:36.287Z,99.99
2016-11-14T10:52:36.303Z,99.99
2016-11-14T10:53:36.320Z,99.99
2016-11-14T10:54:36.335Z,99.99
2016-11-14T10:55:36.353Z,99.99
2016-11-14T10:56:36.368Z,99.99
2016-11-14T10:57:36.386Z,99.81
2016-11-14T10:58:36.398Z,99.99
2016-11-14T10:59:36.419Z,99.99
2016-11-14T11:00:36.433Z,99.99
2016-11-14T11:01:36.446Z,99.66
2016-11-14T11:02:36.466Z,99.95
2016-11-14T11:03:51.394Z,99.48
2016-11-14T11:04:36.494Z,99.9
2016-11-14T11:05:36.510Z,99.52
2016-11-14T11:06:36.528Z,99.05
2016-11-14T11:07:36.546Z,98.58
2016-11-14T11:08:36.567Z,98.3
2016-11-14T11:09:36.577Z,98.39
2016-11-14T11:10:36.591Z,98.3
2016-11-14T11:11:36.607Z,98.11
2016-11-14T11:13:36.644Z,98.3
2016-11-14T11:14:36.660Z,98.11
2016-11-14T11:15:36.675Z,97.63
2016-11-14T11:16:37.032Z,97.73
2016-11-14T11:17:36.707Z,98.01
2016-11-14T11:18:51.638Z,97.35
2016-11-14T11:19:36.739Z,97.63
2016-11-14T11:20:36.755Z,97.16
2016-11-14T11:21:36.774Z,97.16
2016-11-14T11:22:36.788Z,97.16
2016-11-14T11:23:36.806Z,97.35
2016-11-14T11:25:36.840Z,96.78
2016-11-14T11:26:36.854Z,96.5
2016-11-14T11:27:36.868Z,96.78
2016-11-14T11:28:36.885Z,96.69
2016-11-14T11:29:36.902Z,97.25
2016-11-14T11:30:36.922Z,97.06
2016-11-14T11:31:36.934Z,96.69
2016-11-14T11:32:36.949Z,97.25
2016-11-14T11:33:36.968Z,96.97
2016-11-14T11:34:36.984Z,96.88
2016-11-14T11:35:37.004Z,96.31
2016-11-14T11:36:37.017Z,95.6
2016-11-14T11:37:37.034Z,95.74
2016-11-14T11:38:37.049Z,95.6
2016-11-14T11:39:37.067Z,96.21
2016-11-14T11:42:37.118Z,95.74
2016-11-14T11:43:37.129Z,95.64
2016-11-14T11:44:37.149Z,95.5
2016-11-14T11:45:37.176Z,95.45
2016-11-14T11:46:37.182Z,95.26
2016-11-14T11:47:37.200Z,95.36
2016-11-14T11:48:37.216Z,95.88
2016-11-14T11:49:37.234Z,95.17
2016-11-14T11:50:52.163Z,95.12
2016-11-14T11:51:37.263Z,94.84
2016-11-14T11:52:37.282Z,94.37
2016-11-14T11:53:37.296Z,94.56
2016-11-14T11:54:37.321Z,93.8
2016-11-14T11:55:37.335Z,93.7
2016-11-14T11:56:37.354Z,94.08
2016-11-14T11:57:37.365Z,94.27
2016-11-14T11:58:37.383Z,94.08
2016-11-14T11:59:37.401Z,93.32
2016-11-14T12:00:37.420Z,93.23
2016-11-14T12:01:37.434Z,93.23
2016-11-14T12:02:37.448Z,93.42
2016-11-14T12:03:37.464Z,93.8
2016-11-14T12:04:37.483Z,93.8
2016-11-14T12:05:37.503Z,93.8
2016-11-14T12:06:52.430Z,93.32
2016-11-14T12:07:37.784Z,93.32
2016-11-14T12:08:37.549Z,92.94
2016-11-14T12:09:37.567Z,93.42
2016-11-14T12:10:37.632Z,92.09
2016-11-14T12:11:37.599Z,90.77
2016-11-14T12:12:37.715Z,90.39
2016-11-14T12:15:37.665Z,89.91
2016-11-14T12:16:37.684Z,90.2
2016-11-14T12:17:37.701Z,89.91
2016-11-14T12:18:37.718Z,89.82
2016-11-14T12:19:37.733Z,89.53
2016-11-14T12:20:37.753Z,89.63
2016-11-14T12:21:38.454Z,89.15
2016-11-14T12:22:52.698Z,88.68
2016-11-14T12:23:37.805Z,89.15
2016-11-14T12:24:37.818Z,88.59
2016-11-14T12:25:37.837Z,88.78
2016-11-14T12:26:37.854Z,88.3
2016-11-14T12:27:37.872Z,88.68
2016-11-14T12:28:37.888Z,88.3
2016-11-14T12:29:37.906Z,88.11
2016-11-14T12:30:37.922Z,88.3
2016-11-14T12:31:37.936Z,87.73
2016-11-14T12:32:37.955Z,87.54
2016-11-14T12:33:37.978Z,87.35
2016-11-14T12:34:37.989Z,88.3
2016-11-14T12:35:38.004Z,88.3
2016-11-14T12:36:38.022Z,88.21
2016-11-14T12:37:38.040Z,88.11
2016-11-14T12:38:52.971Z,88.11
2016-11-14T12:39:38.072Z,87.92
2016-11-14T12:40:38.093Z,88.21
2016-11-14T12:41:38.104Z,88.11
2016-11-14T12:42:38.125Z,88.11
2016-11-14T12:43:38.141Z,87.92
2016-11-14T12:46:38.194Z,87.16
2016-11-14T12:47:38.211Z,86.64
2016-11-14T12:48:38.226Z,86.98
2016-11-14T12:49:38.242Z,86.83
2016-11-14T12:50:38.259Z,87.59
2016-11-14T12:51:38.284Z,86.93
2016-11-14T12:52:38.296Z,85.97
2016-11-14T12:53:53.227Z,87.97
2016-11-14T12:54:38.331Z,87.02
2016-11-14T12:55:38.345Z,86.6
2016-11-14T12:56:38.366Z,87.3
2016-11-14T12:57:38.384Z,88.25
2016-11-14T12:59:38.417Z,88.87
2016-11-14T13:00:38.435Z,88.11
2016-11-14T13:01:38.451Z,87.26
2016-11-14T13:02:38.469Z,87.26
2016-11-14T13:04:38.504Z,86.93
2016-11-14T13:05:38.517Z,87.21
2016-11-14T13:06:38.538Z,88.06
2016-11-14T13:07:38.552Z,87.87
2016-11-14T13:08:38.569Z,87.59
2016-11-14T13:09:38.589Z,87.97
2016-11-14T13:10:38.608Z,87.02
2016-11-14T13:11:38.622Z,86.64
2016-11-14T13:12:38.641Z,86.07
2016-11-14T13:13:38.657Z,85.5
2016-11-14T13:14:38.673Z,85.88
2016-11-14T13:15:38.695Z,86.16
2016-11-14T13:16:38.740Z,85.5
2016-11-14T13:18:38.745Z,85.41
2016-11-14T13:19:38.761Z,85.6
2016-11-14T13:20:38.778Z,84.84
2016-11-14T13:21:38.797Z,85.17
2016-11-14T13:22:38.812Z,84.55
2016-11-14T13:23:38.829Z,84.94
2016-11-14T13:24:38.848Z,84.46
2016-11-14T13:25:53.779Z,83.51
2016-11-14T13:26:38.882Z,83.98
2016-11-14T13:27:38.904Z,84.17
2016-11-14T13:28:38.917Z,84.84
2016-11-14T13:29:38.934Z,84.61
2016-11-14T13:30:38.951Z,84.08
2016-11-14T13:33:39.004Z,83.32
2016-11-14T13:34:39.022Z,82.85
2016-11-14T13:35:39.037Z,82.37
2016-11-14T13:36:39.053Z,82.71
2016-11-14T13:37:39.073Z,83
2016-11-14T13:38:39.090Z,82.52
2016-11-14T13:39:39.105Z,82.09
2016-11-14T13:40:39.124Z,81.33
2016-11-14T13:41:54.055Z,81.9
2016-11-14T13:42:39.159Z,81.81
2016-11-14T13:43:39.178Z,81.33